createdAt,value
2018-03-06T00:01:01.128Z,96.78
2018-03-06T00:02:01.039Z,96.11
2018-03-06T00:03:54.282Z,96.21
2018-03-06T00:04:54.203Z,97.25
2018-03-06T00:06:47.489Z,96.59
2018-03-06T00:07:47.399Z,96.21
2018-03-06T00:09:40.635Z,96.35
2018-03-06T00:10:40.564Z,95.97
2018-03-06T00:12:33.856Z,97.01
2018-03-06T00:13:33.766Z,97.39
2018-03-06T00:15:27.025Z,97.58
2018-03-06T00:16:26.925Z,97.86
2018-03-06T00:18:20.203Z,97.67
2018-03-06T00:19:20.104Z,97.67
2018-03-06T00:21:13.359Z,98.57
2018-03-06T00:22:13.298Z,98.66
2018-03-06T00:24:06.572Z,98.66
2018-03-06T00:25:06.485Z,98.24
2018-03-06T00:26:59.717Z,98.14
2018-03-06T00:27:59.652Z,98.14
2018-03-06T00:29:52.930Z,97.39
2018-03-06T00:30:52.825Z,97.58
2018-03-06T00:32:46.073Z,98.61
2018-03-06T00:33:46.007Z,97.67
2018-03-06T00:35:39.291Z,98.57
2018-03-06T00:36:39.199Z,99.14
2018-03-06T00:38:32.451Z,98.24
2018-03-06T00:39:32.378Z,97.86
2018-03-06T00:41:25.663Z,97.77
2018-03-06T00:42:25.597Z,97.77
2018-03-06T00:44:18.833Z,98.24
2018-03-06T00:45:18.774Z,98.61
2018-03-06T00:47:12.022Z,98.38
2018-03-06T00:48:11.945Z,98.43
2018-03-06T00:50:05.190Z,98.14
2018-03-06T00:51:05.122Z,97.39
2018-03-06T00:52:58.418Z,98.05
2018-03-06T00:53:58.288Z,97.48
2018-03-06T00:55:51.570Z,97.67
2018-03-06T00:56:51.474Z,97.96
2018-03-06T00:58:44.765Z,97.29
2018-03-06T00:59:44.672Z,97.58
2018-03-06T01:01:37.898Z,98.24
2018-03-06T01:02:37.828Z,98.76
2018-03-06T01:04:31.122Z,99.80
2018-03-06T01:05:31.031Z,98.71
2018-03-06T01:07:24.262Z,98.52
2018-03-06T01:08:24.219Z,98.24
2018-03-06T01:10:17.465Z,97.86
2018-03-06T01:11:17.372Z,97.67
2018-03-06T01:13:10.640Z,98.05
2018-03-06T01:14:10.572Z,98.61
2018-03-06T01:16:04.849Z,98.71
2018-03-06T01:17:04.737Z,98.80
2018-03-06T01:18:58.000Z,99.52
2018-03-06T01:19:57.943Z,99.99
2018-03-06T01:21:51.203Z,99.61
2018-03-06T01:22:51.100Z,99.23
2018-03-06T01:24:44.362Z,98.80
2018-03-06T01:25:44.270Z,98.76
2018-03-06T01:27:37.553Z,98.76
2018-03-06T01:28:37.455Z,99.42
2018-03-06T01:30:30.703Z,98.85
2018-03-06T01:31:30.651Z,98.10
2018-03-06T01:33:23.915Z,97.34
2018-03-06T01:34:23.816Z,96.96
2018-03-06T01:36:17.079Z,96.78
2018-03-06T01:37:16.992Z,97.15
2018-03-06T01:39:10.276Z,96.68
2018-03-06T01:40:10.176Z,97.15
2018-03-06T01:42:03.442Z,97.91
2018-03-06T01:43:03.361Z,97.72
2018-03-06T01:44:56.621Z,97.53
2018-03-06T01:45:56.540Z,97.25
2018-03-06T01:47:49.786Z,97.01
2018-03-06T01:48:49.710Z,96.96
2018-03-06T01:50:42.981Z,97.01
2018-03-06T01:51:42.888Z,97.10
2018-03-06T01:53:36.195Z,97.67
2018-03-06T01:54:36.074Z,97.48
2018-03-06T01:56:29.348Z,97.86
2018-03-06T01:57:29.256Z,97.86
2018-03-06T01:59:22.499Z,97.58
2018-03-06T02:00:22.442Z,97.77
2018-03-06T02:02:15.697Z,97.20
2018-03-06T02:03:15.607Z,97.01
2018-03-06T02:05:08.851Z,96.54
2018-03-06T02:06:08.801Z,97.01
2018-03-06T02:08:02.070Z,97.58
2018-03-06T02:09:01.955Z,97.77
2018-03-06T02:10:55.220Z,98.05
2018-03-06T02:11:55.159Z,98.43
2018-03-06T02:13:48.417Z,98.61
2018-03-06T02:14:48.316Z,98.80
2018-03-06T02:16:41.569Z,98.43
2018-03-06T02:17:41.491Z,98.24
2018-03-06T02:19:34.772Z,98.43
2018-03-06T02:20:34.675Z,98.52
2018-03-06T02:22:27.919Z,98.99
2018-03-06T02:23:27.866Z,99.27
2018-03-06T02:25:21.150Z,99.27
2018-03-06T02:26:21.029Z,98.90
2018-03-06T02:28:14.276Z,98.90
2018-03-06T02:29:14.206Z,98.52
2018-03-06T02:31:07.481Z,98.90
2018-03-06T02:32:07.394Z,98.80
2018-03-06T02:34:00.628Z,98.61
2018-03-06T02:35:00.571Z,98.43
2018-03-06T02:36:53.841Z,98.99
2018-03-06T02:37:53.744Z,98.52
2018-03-06T02:39:46.994Z,98.80
2018-03-06T02:40:46.921Z,98.90
2018-03-06T02:42:40.191Z,98.90
2018-03-06T02:43:40.093Z,99.08
2018-03-06T02:45:33.340Z,98.33
2018-03-06T02:46:33.271Z,98.24
2018-03-06T02:48:26.576Z,98.71
2018-03-06T02:49:26.449Z,98.61
2018-03-06T02:51:19.713Z,98.24
2018-03-06T02:52:19.644Z,98.24
2018-03-06T02:54:12.912Z,98.24
2018-03-06T02:55:12.811Z,98.61
2018-03-06T02:57:06.065Z,97.29
2018-03-06T02:58:05.993Z,98.61
2018-03-06T03:00:00.258Z,98.33
2018-03-06T03:01:00.166Z,97.67
2018-03-06T03:02:53.407Z,98.24
2018-03-06T03:03:53.337Z,98.95
2018-03-06T03:05:46.615Z,97.96
2018-03-06T03:06:46.550Z,97.10
2018-03-06T03:08:39.765Z,97.29
2018-03-06T03:09:39.692Z,98.24
2018-03-06T03:11:32.969Z,97.67
2018-03-06T03:12:32.886Z,97.48
2018-03-06T03:14:26.116Z,97.77
2018-03-06T03:15:26.062Z,97.48
2018-03-06T03:17:19.327Z,98.71
2018-03-06T03:18:19.226Z,97.48
2018-03-06T03:20:12.473Z,98.90
2018-03-06T03:21:12.404Z,99.56
2018-03-06T03:23:05.682Z,98.90
2018-03-06T03:24:05.590Z,98.90
2018-03-06T03:25:58.827Z,98.24
2018-03-06T03:26:58.757Z,98.14
2018-03-06T03:28:52.034Z,98.52
2018-03-06T03:29:51.938Z,98.24
2018-03-06T03:31:45.186Z,98.24
2018-03-06T03:32:45.117Z,98.43
2018-03-06T03:34:38.389Z,98.43
2018-03-06T03:35:38.290Z,98.90
2018-03-06T03:37:31.545Z,98.80
2018-03-06T03:38:31.467Z,98.90
2018-03-06T03:40:24.745Z,99.18
2018-03-06T03:41:24.645Z,99.46
2018-03-06T03:43:17.909Z,98.28
2018-03-06T03:44:17.826Z,98.00
2018-03-06T03:46:11.111Z,98.10
2018-03-06T03:47:11.006Z,97.81
2018-03-06T03:49:04.251Z,98.94
2018-03-06T03:50:04.178Z,99.13
2018-03-06T03:51:57.452Z,99.99
2018-03-06T03:52:57.355Z,99.99
2018-03-06T03:54:50.599Z,99.99
2018-03-06T03:55:50.534Z,99.99
2018-03-06T03:57:43.809Z,99.84
2018-03-06T03:58:43.707Z,99.18
2018-03-06T04:00:36.960Z,98.61
2018-03-06T04:01:36.883Z,98.33
2018-03-06T04:03:30.161Z,98.71
2018-03-06T04:04:30.071Z,98.61
2018-03-06T04:06:23.319Z,99.46
2018-03-06T04:07:23.259Z,98.94
2018-03-06T04:09:17.513Z,98.19
2018-03-06T04:10:17.422Z,97.43
2018-03-06T04:12:10.667Z,98.00
2018-03-06T04:13:10.596Z,98.00
2018-03-06T04:15:03.875Z,98.57
2018-03-06T04:16:03.776Z,98.38
2018-03-06T04:17:57.014Z,98.19
2018-03-06T04:18:56.948Z,98.28
2018-03-06T04:20:50.220Z,98.57
2018-03-06T04:21:50.137Z,98.57
2018-03-06T04:23:43.371Z,98.28
2018-03-06T04:24:43.296Z,98.94
2018-03-06T04:26:36.590Z,98.66
2018-03-06T04:27:36.471Z,99.13
2018-03-06T04:29:29.719Z,99.41
2018-03-06T04:30:29.650Z,99.98
2018-03-06T04:32:22.931Z,99.98
2018-03-06T04:33:22.825Z,99.99
2018-03-06T04:35:16.073Z,99.88
2018-03-06T04:36:16.006Z,99.99
2018-03-06T04:38:09.295Z,99.88
2018-03-06T04:39:09.180Z,99.79
2018-03-06T04:41:02.425Z,99.98
2018-03-06T04:42:02.359Z,99.79
2018-03-06T04:43:55.631Z,99.41
2018-03-06T04:44:55.533Z,99.41
2018-03-06T04:46:48.778Z,99.22
2018-03-06T04:47:48.707Z,99.04
2018-03-06T04:49:41.982Z,98.19
2018-03-06T04:50:41.885Z,98.47
2018-03-06T04:52:35.128Z,98.85
2018-03-06T04:53:35.072Z,98.85
2018-03-06T04:55:28.335Z,98.85
2018-03-06T04:56:28.233Z,98.66
2018-03-06T04:58:21.530Z,98.85
2018-03-06T04:59:21.411Z,98.57
2018-03-06T05:01:14.688Z,99.27
2018-03-06T05:02:14.587Z,99.32
2018-03-06T05:04:07.966Z,99.60
2018-03-06T05:05:07.761Z,99.41
2018-03-06T05:07:01.036Z,99.98
2018-03-06T05:08:00.936Z,99.98
2018-03-06T05:09:54.184Z,99.79
2018-03-06T05:10:54.114Z,99.99
2018-03-06T05:12:47.390Z,99.51
2018-03-06T05:13:47.291Z,99.22
2018-03-06T05:15:40.534Z,99.41
2018-03-06T05:16:40.466Z,99.65
2018-03-06T05:18:33.739Z,99.41
2018-03-06T05:19:33.645Z,99.99
2018-03-06T05:21:26.906Z,99.98
2018-03-06T05:22:26.816Z,99.79
2018-03-06T05:24:20.091Z,99.99
2018-03-06T05:25:19.991Z,99.99
2018-03-06T05:27:13.238Z,99.99
2018-03-06T05:28:13.166Z,99.98
2018-03-06T05:30:06.443Z,99.99
2018-03-06T05:31:06.344Z,99.99
2018-03-06T05:32:59.591Z,99.99
2018-03-06T05:33:59.519Z,99.99
2018-03-06T05:35:52.798Z,99.99
2018-03-06T05:36:52.695Z,99.99
2018-03-06T05:38:45.950Z,99.99
2018-03-06T05:39:45.867Z,99.99
2018-03-06T05:41:39.154Z,99.99
2018-03-06T05:42:39.044Z,99.99
2018-03-06T05:44:32.292Z,99.99
2018-03-06T05:45:32.220Z,99.99
2018-03-06T05:47:26.499Z,99.98
2018-03-06T05:48:26.397Z,99.99
2018-03-06T05:50:19.657Z,99.98
2018-03-06T05:51:19.580Z,99.99
2018-03-06T05:53:12.859Z,99.99
2018-03-06T05:54:12.758Z,99.99
2018-03-06T05:56:06.002Z,99.99
2018-03-06T05:57:05.932Z,99.99
2018-03-06T05:58:59.225Z,99.99
2018-03-06T05:59:59.109Z,99.99
2018-03-06T06:01:52.356Z,99.98
2018-03-06T06:02:52.287Z,99.99
2018-03-06T06:04:45.563Z,99.99
2018-03-06T06:05:45.462Z,99.99
2018-03-06T06:07:38.710Z,99.99
2018-03-06T06:08:38.662Z,99.99
2018-03-06T06:10:31.916Z,99.99
2018-03-06T06:11:31.815Z,99.99
2018-03-06T06:13:25.061Z,99.88
2018-03-06T06:14:24.992Z,99.99
2018-03-06T06:16:18.265Z,99.99
2018-03-06T06:17:18.172Z,99.99
2018-03-06T06:19:11.413Z,99.88
2018-03-06T06:20:11.345Z,99.99
2018-03-06T06:22:04.619Z,99.88
2018-03-06T06:23:04.520Z,99.99
2018-03-06T06:24:57.771Z,99.99
2018-03-06T06:25:57.699Z,99.32
2018-03-06T06:27:50.975Z,99.32
2018-03-06T06:28:50.876Z,99.22
2018-03-06T06:30:44.125Z,99.13
2018-03-06T06:31:44.052Z,98.85
2018-03-06T06:33:37.329Z,99.37
2018-03-06T06:34:37.235Z,98.90
2018-03-06T06:36:30.478Z,98.90
2018-03-06T06:37:30.411Z,98.90
2018-03-06T06:39:23.689Z,98.05
2018-03-06T06:40:23.588Z,98.43
2018-03-06T06:42:16.837Z,98.43
2018-03-06T06:43:16.767Z,98.61
2018-03-06T06:45:10.678Z,97.48
2018-03-06T06:46:09.945Z,97.86
2018-03-06T06:48:03.209Z,97.58
2018-03-06T06:49:03.123Z,97.53
2018-03-06T06:50:56.401Z,97.53
2018-03-06T06:51:56.314Z,97.63
2018-03-06T06:53:49.549Z,97.34
2018-03-06T06:54:49.481Z,97.06
2018-03-06T06:56:42.761Z,95.73
2018-03-06T06:57:42.661Z,96.02
2018-03-06T06:59:35.908Z,95.73
2018-03-06T07:00:35.847Z,95.73
2018-03-06T07:02:29.137Z,95.26
2018-03-06T07:03:29.039Z,95.03
2018-03-06T07:05:22.267Z,93.89
2018-03-06T07:06:22.208Z,94.08
2018-03-06T07:08:15.473Z,93.51
2018-03-06T07:09:15.376Z,93.23
2018-03-06T07:11:08.625Z,93.23
2018-03-06T07:12:08.561Z,93.04
2018-03-06T07:14:01.837Z,91.62
2018-03-06T07:15:01.744Z,91.53
2018-03-06T07:16:54.521Z,91.39
2018-03-06T07:17:54.437Z,90.25
2018-03-06T07:19:47.722Z,89.97
2018-03-06T07:20:47.624Z,89.87
2018-03-06T07:22:40.871Z,89.78
2018-03-06T07:23:40.813Z,89.78
2018-03-06T07:25:34.087Z,88.40
2018-03-06T07:26:34.047Z,87.84
2018-03-06T07:28:27.244Z,86.04
2018-03-06T07:29:27.177Z,86.22
2018-03-06T07:31:20.460Z,84.56
2018-03-06T07:32:20.371Z,84.19
2018-03-06T07:34:13.617Z,83.47
2018-03-06T07:35:13.550Z,83.09
2018-03-06T07:37:06.836Z,81.57
2018-03-06T07:38:06.775Z,81.48
2018-03-06T07:39:59.992Z,79.53
2018-03-06T07:40:59.930Z,78.58
2018-03-06T07:42:53.213Z,78.58
2018-03-06T07:43:53.118Z,77.35
2018-03-06T07:45:46.376Z,76.97
2018-03-06T07:46:46.312Z,76.92
2018-03-06T07:48:39.595Z,75.68
2018-03-06T07:49:39.504Z,76.44
2018-03-06T07:51:32.761Z,77.20
2018-03-06T07:52:32.696Z,75.53
2018-03-06T07:54:25.999Z,75.68
2018-03-06T07:55:25.888Z,76.73
2018-03-06T07:57:19.164Z,76.20
2018-03-06T07:58:19.086Z,75.91
2018-03-06T08:00:12.372Z,77.58
2018-03-06T08:01:12.277Z,77.58
2018-03-06T08:03:05.538Z,76.54
2018-03-06T08:04:05.487Z,76.82
2018-03-06T08:05:58.764Z,76.25
2018-03-06T08:06:58.671Z,76.48
2018-03-06T08:08:51.949Z,75.91
2018-03-06T08:09:51.872Z,75.76
2018-03-06T08:11:45.204Z,72.63
2018-03-06T08:12:45.065Z,72.21
2018-03-06T08:14:38.331Z,72.49
2018-03-06T08:15:38.266Z,72.44
2018-03-06T08:17:31.559Z,73.61
2018-03-06T08:18:31.462Z,72.09
2018-03-06T08:20:24.737Z,71.23
2018-03-06T08:21:24.662Z,71.56
2018-03-06T08:23:17.957Z,70.04
2018-03-06T08:24:17.888Z,70.07
2018-03-06T08:26:11.260Z,67.69
2018-03-06T08:27:11.139Z,69.02
2018-03-06T08:29:04.381Z,67.13
2018-03-06T08:30:04.275Z,65.99
2018-03-06T08:31:57.535Z,65.92
2018-03-06T08:33:05.096Z,65.54
2018-03-06T08:34:50.765Z,65.67
2018-03-06T08:35:58.303Z,66.52
2018-03-06T08:37:43.972Z,66.42
2018-03-06T08:38:43.903Z,67.32
2018-03-06T08:40:37.180Z,67.32
2018-03-06T08:41:37.086Z,67.60
2018-03-06T08:43:30.351Z,66.39
2018-03-06T08:44:30.291Z,66.36
2018-03-06T08:46:23.582Z,67.82
2018-03-06T08:47:23.501Z,68.67
2018-03-06T08:49:16.761Z,69.59
2018-03-06T08:50:16.701Z,69.96
2018-03-06T08:52:10.011Z,71.90
2018-03-06T08:53:09.908Z,71.58
2018-03-06T08:55:03.173Z,70.82
2018-03-06T08:56:03.114Z,70.86
2018-03-06T08:57:56.415Z,70.95
2018-03-06T08:58:56.327Z,70.76
2018-03-06T09:00:49.591Z,71.23
2018-03-06T09:01:49.533Z,71.27
2018-03-06T09:03:42.848Z,70.04
2018-03-06T09:04:42.740Z,70.26
2018-03-06T09:06:36.133Z,66.97
2018-03-06T09:07:35.950Z,66.20
2018-03-06T09:09:29.260Z,64.50
2018-03-06T09:10:29.154Z,64.27
2018-03-06T09:12:22.418Z,65.95
2018-03-06T09:13:22.360Z,67.13
2018-03-06T09:15:15.656Z,67.50
2018-03-06T09:16:15.572Z,66.30
2018-03-06T09:18:08.833Z,66.11
2018-03-06T09:19:08.774Z,64.59
2018-03-06T09:21:02.071Z,63.96
2018-03-06T09:22:01.983Z,63.86
2018-03-06T09:23:55.247Z,62.53
2018-03-06T09:24:55.190Z,62.18
2018-03-06T09:26:48.486Z,62.08
2018-03-06T09:27:48.398Z,61.70
2018-03-06T09:29:41.666Z,60.66
2018-03-06T09:30:41.611Z,61.22
2018-03-06T09:32:34.911Z,60.69
2018-03-06T09:33:34.820Z,60.56
2018-03-06T09:35:28.089Z,60.02
2018-03-06T09:36:28.031Z,60.46
2018-03-06T09:38:21.346Z,59.99
2018-03-06T09:39:21.243Z,60.05
2018-03-06T09:41:14.513Z,63.86
2018-03-06T09:42:14.455Z,62.15
2018-03-06T09:44:07.751Z,60.08
2018-03-06T09:45:07.667Z,60.94
2018-03-06T09:47:00.936Z,58.94
2018-03-06T09:48:00.877Z,59.99
2018-03-06T09:49:54.176Z,60.08
2018-03-06T09:50:54.088Z,60.18
2018-03-06T09:52:47.358Z,60.27
2018-03-06T09:53:47.307Z,60.60
2018-03-06T09:55:40.622Z,63.83
2018-03-06T09:56:40.511Z,63.92
2018-03-06T09:58:33.779Z,64.31
2018-03-06T09:59:33.723Z,62.69
2018-03-06T10:01:27.021Z,62.30
2018-03-06T10:02:26.933Z,62.12
2018-03-06T10:04:20.202Z,65.03
2018-03-06T10:05:20.159Z,65.32
2018-03-06T10:07:13.441Z,65.41
2018-03-06T10:08:13.354Z,65.60
2018-03-06T10:10:06.620Z,62.59
2018-03-06T10:11:06.561Z,61.45
2018-03-06T10:12:59.880Z,62.59
2018-03-06T10:13:59.774Z,62.21
2018-03-06T10:15:53.044Z,62.43
2018-03-06T10:16:52.994Z,62.78
2018-03-06T10:18:46.293Z,63.45
2018-03-06T10:19:46.197Z,63.92
2018-03-06T10:21:39.470Z,62.59
2018-03-06T10:22:39.409Z,62.97
2018-03-06T10:24:32.722Z,64.50
2018-03-06T10:25:32.618Z,65.22
2018-03-06T10:27:25.892Z,66.02
2018-03-06T10:28:25.830Z,65.60
2018-03-06T10:30:19.143Z,65.92
2018-03-06T10:31:19.047Z,65.38
2018-03-06T10:33:12.315Z,62.53
2018-03-06T10:34:12.257Z,62.75
2018-03-06T10:36:05.685Z,62.37
2018-03-06T10:37:13.080Z,59.99
2018-03-06T10:38:58.735Z,60.75
2018-03-06T10:39:58.678Z,60.85
2018-03-06T10:41:51.980Z,59.13
2018-03-06T10:42:51.888Z,61.25
2018-03-06T10:44:45.157Z,60.08
2018-03-06T10:45:45.099Z,62.65
2018-03-06T10:47:38.397Z,62.27
2018-03-06T10:48:38.311Z,62.46
2018-03-06T10:50:31.577Z,60.56
2018-03-06T10:51:31.520Z,61.25
2018-03-06T10:53:24.818Z,60.69
2018-03-06T10:54:24.733Z,60.56
2018-03-06T10:56:18.002Z,60.94
2018-03-06T10:57:17.947Z,60.18
2018-03-06T10:59:11.243Z,58.59
2018-03-06T11:00:11.157Z,58.65
2018-03-06T11:02:04.426Z,59.99
2018-03-06T11:03:04.368Z,60.56
2018-03-06T11:04:57.667Z,59.03
2018-03-06T11:05:57.580Z,59.99
2018-03-06T11:07:50.850Z,60.66
2018-03-06T11:08:50.799Z,61.04
2018-03-06T11:10:44.111Z,61.61
2018-03-06T11:11:44.007Z,60.08
2018-03-06T11:13:37.283Z,59.99
2018-03-06T11:14:37.221Z,61.73
2018-03-06T11:16:30.521Z,59.89
2018-03-06T11:17:30.435Z,60.08
2018-03-06T11:19:23.708Z,61.61
2018-03-06T11:20:23.653Z,60.94
2018-03-06T11:22:16.969Z,58.65
2018-03-06T11:23:16.876Z,59.23
2018-03-06T11:25:10.137Z,60.91
2018-03-06T11:26:10.080Z,61.29
2018-03-06T11:28:03.387Z,61.00
2018-03-06T11:29:03.331Z,60.63
2018-03-06T11:30:56.565Z,60.05
2018-03-06T11:31:56.510Z,61.19
2018-03-06T11:33:49.809Z,61.45
2018-03-06T11:34:49.722Z,62.12
2018-03-06T11:36:42.990Z,63.57
2018-03-06T11:37:42.939Z,63.96
2018-03-06T11:39:36.537Z,63.89
2018-03-06T11:40:36.145Z,61.42
2018-03-06T11:42:29.414Z,58.75
2018-03-06T11:43:29.359Z,58.65
2018-03-06T11:45:22.661Z,59.80
2018-03-06T11:46:22.569Z,60.56
2018-03-06T11:48:15.836Z,58.94
2018-03-06T11:49:15.779Z,58.97
2018-03-06T11:51:09.080Z,58.87
2018-03-06T11:52:08.992Z,60.11
2018-03-06T11:54:02.265Z,58.43
2018-03-06T11:55:02.202Z,57.64
2018-03-06T11:56:55.501Z,56.62
2018-03-06T11:57:55.413Z,56.81
2018-03-06T11:59:48.681Z,56.04
2018-03-06T12:00:48.624Z,56.14
2018-03-06T12:02:41.937Z,56.14
2018-03-06T12:03:41.834Z,57.09
2018-03-06T12:05:35.116Z,55.95
2018-03-06T12:06:35.057Z,54.24
2018-03-06T12:08:28.420Z,56.43
2018-03-06T12:09:28.271Z,55.47
2018-03-06T12:11:21.541Z,56.90
2018-03-06T12:12:21.506Z,56.33
2018-03-06T12:14:14.803Z,58.14
2018-03-06T12:15:14.697Z,58.04
2018-03-06T12:17:07.967Z,57.67
2018-03-06T12:18:07.909Z,56.62
2018-03-06T12:20:01.212Z,58.04
2018-03-06T12:21:01.129Z,57.38
2018-03-06T12:22:54.395Z,58.24
2018-03-06T12:23:54.338Z,58.33
2018-03-06T12:25:47.636Z,57.67
2018-03-06T12:26:47.548Z,56.81
2018-03-06T12:28:40.822Z,56.24
2018-03-06T12:29:40.767Z,56.04
2018-03-06T12:31:34.061Z,56.71
2018-03-06T12:32:33.975Z,56.04
2018-03-06T12:34:27.246Z,57.95
2018-03-06T12:35:27.189Z,56.33
2018-03-06T12:37:20.487Z,56.62
2018-03-06T12:38:20.404Z,56.43
2018-03-06T12:40:13.673Z,55.09
2018-03-06T12:41:13.613Z,55.07
2018-03-06T12:43:06.932Z,56.78
2018-03-06T12:44:06.829Z,57.09
2018-03-06T12:46:00.102Z,57.45
2018-03-06T12:47:00.045Z,58.97
2018-03-06T12:48:53.344Z,60.11
2018-03-06T12:49:53.257Z,57.82
2018-03-06T12:51:46.526Z,58.81
2018-03-06T12:52:46.470Z,58.14
2018-03-06T12:54:39.794Z,57.09
2018-03-06T12:55:39.682Z,58.24
2018-03-06T12:57:32.953Z,58.50
2018-03-06T12:58:32.898Z,56.97
2018-03-06T13:00:26.214Z,58.50
2018-03-06T13:01:26.107Z,58.87
2018-03-06T13:03:19.378Z,58.87
2018-03-06T13:04:19.319Z,59.92
2018-03-06T13:06:12.619Z,58.33
2018-03-06T13:07:12.576Z,58.72
2018-03-06T13:09:05.808Z,56.43
2018-03-06T13:10:05.743Z,56.40
2018-03-06T13:11:59.042Z,56.78
2018-03-06T13:12:58.956Z,57.26
2018-03-06T13:14:52.225Z,57.35
2018-03-06T13:15:52.169Z,57.16
2018-03-06T13:17:45.468Z,57.26
2018-03-06T13:18:45.378Z,56.68
2018-03-06T13:20:38.646Z,58.02
2018-03-06T13:21:38.590Z,58.69
2018-03-06T13:23:31.889Z,59.00
2018-03-06T13:24:31.800Z,57.57
2018-03-06T13:26:25.068Z,56.43
2018-03-06T13:27:25.011Z,57.07
2018-03-06T13:29:18.309Z,57.09
2018-03-06T13:30:18.239Z,57.09
2018-03-06T13:32:11.487Z,58.43
2018-03-06T13:33:11.427Z,57.57
2018-03-06T13:35:04.743Z,56.30
2018-03-06T13:36:04.640Z,58.52
2018-03-06T13:37:57.907Z,56.90
2018-03-06T13:38:57.849Z,56.71
2018-03-06T13:40:51.147Z,57.67
2018-03-06T13:41:51.060Z,56.43
2018-03-06T13:43:44.337Z,56.59
2018-03-06T13:44:44.272Z,56.49
2018-03-06T13:46:37.584Z,57.35
2018-03-06T13:47:37.494Z,58.78
2018-03-06T13:49:30.766Z,57.16
2018-03-06T13:50:30.707Z,57.86
2018-03-06T13:52:24.006Z,59.00
2018-03-06T13:53:23.915Z,57.00
2018-03-06T13:55:17.185Z,56.90
2018-03-06T13:56:17.127Z,57.67
2018-03-06T13:58:10.426Z,56.71
2018-03-06T13:59:10.337Z,57.07
2018-03-06T14:01:03.606Z,57.26
2018-03-06T14:02:03.547Z,57.45
2018-03-06T14:03:56.863Z,58.78
2018-03-06T14:04:56.761Z,57.67
2018-03-06T14:06:50.026Z,57.09
2018-03-06T14:07:49.970Z,57.09
2018-03-06T14:09:43.268Z,56.43
2018-03-06T14:10:43.200Z,56.02
2018-03-06T14:12:36.447Z,56.30
2018-03-06T14:13:36.391Z,56.40
2018-03-06T14:15:29.766Z,56.97
2018-03-06T14:16:29.600Z,57.45
2018-03-06T14:18:22.875Z,59.38
2018-03-06T14:19:22.809Z,58.14
2018-03-06T14:21:16.130Z,56.78
2018-03-06T14:22:16.021Z,56.68
2018-03-06T14:24:09.288Z,56.11
2018-03-06T14:25:09.230Z,57.16
2018-03-06T14:27:02.528Z,58.11
2018-03-06T14:28:02.444Z,58.87
2018-03-06T14:29:55.718Z,58.50
2018-03-06T14:30:55.650Z,56.40
2018-03-06T14:32:48.950Z,58.69
2018-03-06T14:33:48.867Z,57.42
2018-03-06T14:35:42.131Z,58.18
2018-03-06T14:36:42.068Z,57.42
2018-03-06T14:38:35.363Z,58.30
2018-03-06T14:39:35.278Z,57.45
2018-03-06T14:41:28.539Z,57.54
2018-03-06T14:42:28.484Z,57.82
2018-03-06T14:44:21.907Z,56.78
2018-03-06T14:45:21.690Z,56.87
2018-03-06T14:47:14.956Z,58.21
2018-03-06T14:48:14.898Z,57.54
2018-03-06T14:50:08.196Z,57.67
2018-03-06T14:51:08.131Z,57.00
2018-03-06T14:53:01.370Z,57.28
2018-03-06T14:54:01.312Z,57.00
2018-03-06T14:55:54.608Z,56.30
2018-03-06T14:56:54.521Z,56.68
2018-03-06T14:58:47.786Z,58.97
2018-03-06T14:59:47.730Z,58.78
2018-03-06T15:01:41.024Z,58.02
2018-03-06T15:02:40.936Z,59.16
2018-03-06T15:04:34.204Z,57.42
2018-03-06T15:05:34.143Z,58.28
2018-03-06T15:07:27.459Z,58.75
2018-03-06T15:08:27.353Z,58.75
2018-03-06T15:10:20.617Z,59.03
2018-03-06T15:11:20.561Z,59.32
2018-03-06T15:13:13.852Z,59.23
2018-03-06T15:14:13.762Z,59.13
2018-03-06T15:16:07.029Z,60.18
2018-03-06T15:17:06.964Z,59.61
2018-03-06T15:19:00.276Z,59.70
2018-03-06T15:20:00.169Z,60.08
2018-03-06T15:21:53.433Z,60.66
2018-03-06T15:22:53.374Z,60.85
2018-03-06T15:24:46.666Z,60.37
2018-03-06T15:25:46.626Z,59.80
2018-03-06T15:27:39.840Z,59.70
2018-03-06T15:28:39.785Z,60.18
2018-03-06T15:30:33.077Z,60.56
2018-03-06T15:31:32.984Z,60.27
2018-03-06T15:33:26.247Z,61.51
2018-03-06T15:34:26.192Z,60.53
2018-03-06T15:36:19.485Z,60.53
2018-03-06T15:37:19.389Z,60.82
2018-03-06T15:39:12.656Z,60.72
2018-03-06T15:40:12.591Z,60.63
2018-03-06T15:42:05.892Z,62.24
2018-03-06T15:43:05.799Z,61.29
2018-03-06T15:44:59.063Z,60.63
2018-03-06T15:45:59.002Z,60.82
2018-03-06T15:47:52.309Z,62.43
2018-03-06T15:48:52.204Z,62.15
2018-03-06T15:50:45.465Z,61.48
2018-03-06T15:51:45.404Z,60.91
2018-03-06T15:53:38.705Z,64.53
2018-03-06T15:54:38.607Z,63.01
2018-03-06T15:56:31.873Z,61.77
2018-03-06T15:57:31.809Z,61.58
2018-03-06T15:59:25.113Z,63.96
2018-03-06T16:00:25.010Z,64.34
2018-03-06T16:02:18.272Z,62.62
2018-03-06T16:03:18.210Z,62.34
2018-03-06T16:05:11.508Z,63.10
2018-03-06T16:06:11.411Z,64.15
2018-03-06T16:08:04.671Z,64.53
2018-03-06T16:09:04.611Z,65.67
2018-03-06T16:10:57.904Z,67.54
2018-03-06T16:11:57.810Z,67.16
2018-03-06T16:13:51.080Z,64.97
2018-03-06T16:14:51.010Z,65.06
2018-03-06T16:16:44.303Z,65.06
2018-03-06T16:17:44.214Z,64.78
2018-03-06T16:19:37.491Z,65.45
2018-03-06T16:20:37.415Z,65.35
2018-03-06T16:22:30.723Z,65.16
2018-03-06T16:23:30.612Z,66.11
2018-03-06T16:25:23.874Z,67.44
2018-03-06T16:26:23.813Z,68.77
2018-03-06T16:28:17.104Z,69.02
2018-03-06T16:29:17.011Z,69.41
2018-03-06T16:31:10.272Z,69.60
2018-03-06T16:32:10.211Z,70.07
2018-03-06T16:34:03.501Z,70.61
2018-03-06T16:35:03.414Z,70.70
2018-03-06T16:36:56.669Z,71.37
2018-03-06T16:37:56.608Z,71.27
2018-03-06T16:39:49.906Z,71.08
2018-03-06T16:40:49.808Z,71.81
2018-03-06T16:42:43.068Z,72.66
2018-03-06T16:43:43.004Z,72.85
2018-03-06T16:45:36.308Z,73.76
2018-03-06T16:46:36.203Z,74.71
2018-03-06T16:48:29.465Z,75.47
2018-03-06T16:49:29.397Z,76.04
2018-03-06T16:51:22.691Z,76.95
2018-03-06T16:52:22.603Z,77.62
2018-03-06T16:54:15.854Z,78.09
2018-03-06T16:55:15.791Z,78.19
2018-03-06T16:57:09.081Z,78.66
2018-03-06T16:58:08.990Z,79.42
2018-03-06T17:00:02.250Z,78.61
2018-03-06T17:01:02.183Z,77.94
2018-03-06T17:02:55.471Z,76.23
2018-03-06T17:03:55.378Z,76.42
2018-03-06T17:05:48.634Z,75.67
2018-03-06T17:06:48.573Z,75.95
2018-03-06T17:08:41.865Z,76.23
2018-03-06T17:09:41.768Z,76.23
2018-03-06T17:11:35.031Z,76.14
2018-03-06T17:12:34.964Z,76.99
2018-03-06T17:14:28.253Z,76.80
2018-03-06T17:15:28.157Z,77.47
2018-03-06T17:17:21.418Z,77.28
2018-03-06T17:18:21.350Z,77.37
2018-03-06T17:20:14.637Z,76.90
2018-03-06T17:21:14.543Z,77.18
2018-03-06T17:23:07.803Z,76.80
2018-03-06T17:24:07.739Z,77.56
2018-03-06T17:26:01.035Z,76.99
2018-03-06T17:27:00.931Z,78.80
2018-03-06T17:28:54.193Z,79.14
2018-03-06T17:29:54.126Z,78.75
2018-03-06T17:31:47.412Z,78.66
2018-03-06T17:32:47.318Z,79.80
2018-03-06T17:34:40.574Z,80.46
2018-03-06T17:35:40.513Z,81.23
2018-03-06T17:37:33.798Z,81.23
2018-03-06T17:38:33.704Z,81.13
2018-03-06T17:40:26.978Z,81.51
2018-03-06T17:41:26.899Z,80.56
2018-03-06T17:43:20.195Z,80.33
2018-03-06T17:44:20.089Z,81.75
2018-03-06T17:46:13.348Z,81.56
2018-03-06T17:47:13.286Z,82.70
2018-03-06T17:49:06.570Z,83.27
2018-03-06T17:50:06.475Z,83.51
2018-03-06T17:51:59.733Z,83.89
2018-03-06T17:52:59.669Z,83.98
2018-03-06T17:54:52.956Z,83.32
2018-03-06T17:55:52.863Z,83.98
2018-03-06T17:57:46.118Z,83.98
2018-03-06T17:58:46.055Z,84.94
2018-03-06T18:00:39.341Z,84.46
2018-03-06T18:01:39.249Z,84.94
2018-03-06T18:03:32.515Z,84.84
2018-03-06T18:04:32.441Z,84.65
2018-03-06T18:06:25.728Z,84.08
2018-03-06T18:07:25.630Z,83.42
2018-03-06T18:09:18.886Z,83.75
2018-03-06T18:10:18.887Z,83.94
2018-03-06T18:12:12.112Z,85.36
2018-03-06T18:13:12.012Z,85.84
2018-03-06T18:15:05.268Z,86.03
2018-03-06T18:16:05.207Z,86.27
2018-03-06T18:17:58.489Z,87.26
2018-03-06T18:18:58.393Z,88.59
2018-03-06T18:20:51.647Z,87.73
2018-03-06T18:21:51.581Z,87.40
2018-03-06T18:23:44.865Z,87.59
2018-03-06T18:24:44.772Z,88.35
2018-03-06T18:26:38.036Z,89.68
2018-03-06T18:27:37.959Z,88.73
2018-03-06T18:29:31.243Z,88.17
2018-03-06T18:30:31.147Z,88.73
2018-03-06T18:32:24.404Z,89.39
2018-03-06T18:33:24.338Z,89.01
2018-03-06T18:35:17.622Z,88.64